sensor_id;sensor_type;location;lat;lon;timestamp;P1;durP1;ratioP1;P2;durP2;ratioP2
72621;SDS011;60665;53.506;9.582;2022-07-12T00:00:44;3.20;;;1.50;;
72621;SDS011;60665;53.506;9.582;2022-07-12T00:03:09;4.65;;;2.00;;
72621;SDS011;60665;53.506;9.582;2022-07-12T00:05:35;4.70;;;1.70;;
72621;SDS011;60665;53.506;9.582;2022-07-12T00:08:00;3.42;;;1.50;;
72621;SDS011;60665;53.506;9.582;2022-07-12T00:10:26;2.47;;;1.10;;
72621;SDS011;60665;53.506;9.582;2022-07-12T00:12:51;4.22;;;1.50;;
72621;SDS011;60665;53.506;9.582;2022-07-12T00:15:17;3.03;;;1.50;;
72621;SDS011;60665;53.506;9.582;2022-07-12T00:17:43;3.50;;;1.50;;
72621;SDS011;60665;53.506;9.582;2022-07-12T00:20:08;3.00;;;1.40;;
72621;SDS011;60665;53.506;9.582;2022-07-12T00:22:34;3.50;;;1.40;;
72621;SDS011;60665;53.506;9.582;2022-07-12T00:25:00;3.10;;;1.25;;
72621;SDS011;60665;53.506;9.582;2022-07-12T00:27:25;3.35;;;1.33;;
72621;SDS011;60665;53.506;9.582;2022-07-12T00:29:51;3.92;;;1.70;;
72621;SDS011;60665;53.506;9.582;2022-07-12T00:32:16;3.22;;;1.50;;
72621;SDS011;60665;53.506;9.582;2022-07-12T00:34:41;3.50;;;1.70;;
72621;SDS011;60665;53.506;9.582;2022-07-12T00:37:07;3.47;;;1.70;;
72621;SDS011;60665;53.506;9.582;2022-07-12T00:39:32;3.20;;;1.55;;
72621;SDS011;60665;53.506;9.582;2022-07-12T00:41:58;3.78;;;1.60;;
72621;SDS011;60665;53.506;9.582;2022-07-12T00:44:23;2.63;;;1.17;;
72621;SDS011;60665;53.506;9.582;2022-07-12T00:46:49;3.42;;;1.73;;
72621;SDS011;60665;53.506;9.582;2022-07-12T00:49:14;3.67;;;1.92;;
72621;SDS011;60665;53.506;9.582;2022-07-12T00:51:43;3.75;;;2.00;;
72621;SDS011;60665;53.506;9.582;2022-07-12T00:54:09;2.95;;;1.25;;
72621;SDS011;60665;53.506;9.582;2022-07-12T00:56:35;2.97;;;1.38;;
72621;SDS011;60665;53.506;9.582;2022-07-12T00:59:01;3.00;;;1.45;;
72621;SDS011;60665;53.506;9.582;2022-07-12T01:01:27;3.75;;;1.48;;
72621;SDS011;60665;53.506;9.582;2022-07-12T01:03:53;3.83;;;1.70;;
72621;SDS011;60665;53.506;9.582;2022-07-12T01:06:20;3.42;;;1.70;;
72621;SDS011;60665;53.506;9.582;2022-07-12T01:08:45;3.88;;;1.80;;
72621;SDS011;60665;53.506;9.582;2022-07-12T01:11:11;3.17;;;1.67;;
72621;SDS011;60665;53.506;9.582;2022-07-12T01:13:37;4.15;;;1.50;;
72621;SDS011;60665;53.506;9.582;2022-07-12T01:16:02;3.10;;;1.40;;
72621;SDS011;60665;53.506;9.582;2022-07-12T01:18:29;3.20;;;1.30;;
72621;SDS011;60665;53.506;9.582;2022-07-12T01:20:55;3.00;;;1.42;;
72621;SDS011;60665;53.506;9.582;2022-07-12T01:23:21;3.70;;;1.35;;
72621;SDS011;60665;53.506;9.582;2022-07-12T01:25:47;3.40;;;1.55;;
72621;SDS011;60665;53.506;9.582;2022-07-12T01:28:13;2.80;;;1.33;;
72621;SDS011;60665;53.506;9.582;2022-07-12T01:30:40;3.42;;;1.67;;
72621;SDS011;60665;53.506;9.582;2022-07-12T01:33:05;4.20;;;1.50;;
72621;SDS011;60665;53.506;9.582;2022-07-12T01:35:31;3.30;;;1.50;;
72621;SDS011;60665;53.506;9.582;2022-07-12T01:37:57;2.75;;;1.23;;
72621;SDS011;60665;53.506;9.582;2022-07-12T01:40:22;3.20;;;1.52;;
72621;SDS011;60665;53.506;9.582;2022-07-12T01:42:48;3.40;;;1.95;;
72621;SDS011;60665;53.506;9.582;2022-07-12T01:45:14;3.30;;;1.48;;
72621;SDS011;60665;53.506;9.582;2022-07-12T01:47:39;3.40;;;1.63;;
72621;SDS011;60665;53.506;9.582;2022-07-12T01:50:09;3.33;;;1.55;;
72621;SDS011;60665;53.506;9.582;2022-07-12T01:52:35;3.35;;;1.58;;
72621;SDS011;60665;53.506;9.582;2022-07-12T01:55:01;5.20;;;1.55;;
72621;SDS011;60665;53.506;9.582;2022-07-12T01:57:27;3.38;;;1.45;;
72621;SDS011;60665;53.506;9.582;2022-07-12T01:59:53;3.30;;;1.50;;
72621;SDS011;60665;53.506;9.582;2022-07-12T02:02:18;3.35;;;1.70;;
72621;SDS011;60665;53.506;9.582;2022-07-12T02:04:44;3.45;;;1.70;;
72621;SDS011;60665;53.506;9.582;2022-07-12T02:07:09;2.97;;;1.30;;
72621;SDS011;60665;53.506;9.582;2022-07-12T02:09:35;3.33;;;1.55;;
72621;SDS011;60665;53.506;9.582;2022-07-12T02:12:00;3.45;;;1.50;;
72621;SDS011;60665;53.506;9.582;2022-07-12T02:14:25;3.53;;;1.73;;
72621;SDS011;60665;53.506;9.582;2022-07-12T02:16:52;2.65;;;1.20;;
72621;SDS011;60665;53.506;9.582;2022-07-12T02:19:18;3.17;;;1.55;;
72621;SDS011;60665;53.506;9.582;2022-07-12T02:21:54;2.40;;;1.02;;
72621;SDS011;60665;53.506;9.582;2022-07-12T02:24:29;4.70;;;1.90;;
72621;SDS011;60665;53.506;9.582;2022-07-12T02:27:06;3.15;;;1.50;;
72621;SDS011;60665;53.506;9.582;2022-07-12T02:30:00;2.67;;;1.33;;
72621;SDS011;60665;53.506;9.582;2022-07-12T02:32:36;2.85;;;1.25;;
72621;SDS011;60665;53.506;9.582;2022-07-12T02:35:07;4.35;;;1.48;;
72621;SDS011;60665;53.506;9.582;2022-07-12T02:37:42;3.15;;;1.50;;
72621;SDS011;60665;53.506;9.582;2022-07-12T02:40:08;3.42;;;1.75;;
72621;SDS011;60665;53.506;9.582;2022-07-12T02:42:53;3.05;;;1.33;;
72621;SDS011;60665;53.506;9.582;2022-07-12T02:45:22;4.18;;;1.40;;
72621;SDS011;60665;53.506;9.582;2022-07-12T02:47:52;3.33;;;1.40;;
72621;SDS011;60665;53.506;9.582;2022-07-12T02:50:20;6.45;;;1.52;;
72621;SDS011;60665;53.506;9.582;2022-07-12T02:52:45;2.65;;;1.30;;
72621;SDS011;60665;53.506;9.582;2022-07-12T02:55:11;3.15;;;1.60;;
72621;SDS011;60665;53.506;9.582;2022-07-12T02:57:36;3.40;;;1.55;;
72621;SDS011;60665;53.506;9.582;2022-07-12T03:00:01;3.50;;;1.63;;
72621;SDS011;60665;53.506;9.582;2022-07-12T03:02:27;3.80;;;1.80;;
72621;SDS011;60665;53.506;9.582;2022-07-12T03:04:53;3.35;;;1.60;;
72621;SDS011;60665;53.506;9.582;2022-07-12T03:07:18;2.80;;;1.30;;
72621;SDS011;60665;53.506;9.582;2022-07-12T03:09:44;3.28;;;1.38;;
72621;SDS011;60665;53.506;9.582;2022-07-12T03:12:10;3.28;;;1.52;;
72621;SDS011;60665;53.506;9.582;2022-07-12T03:14:35;3.80;;;1.40;;
72621;SDS011;60665;53.506;9.582;2022-07-12T03:17:00;3.83;;;1.55;;
72621;SDS011;60665;53.506;9.582;2022-07-12T03:19:26;4.85;;;1.73;;
72621;SDS011;60665;53.506;9.582;2022-07-12T03:21:51;3.70;;;1.73;;
72621;SDS011;60665;53.506;9.582;2022-07-12T03:24:16;4.60;;;1.90;;
72621;SDS011;60665;53.506;9.582;2022-07-12T03:26:42;3.65;;;1.70;;
72621;SDS011;60665;53.506;9.582;2022-07-12T03:29:07;3.45;;;1.80;;
72621;SDS011;60665;53.506;9.582;2022-07-12T03:31:33;3.38;;;1.70;;
72621;SDS011;60665;53.506;9.582;2022-07-12T03:33:58;5.65;;;2.30;;
72621;SDS011;60665;53.506;9.582;2022-07-12T03:36:23;5.68;;;2.03;;
72621;SDS011;60665;53.506;9.582;2022-07-12T03:38:49;3.72;;;1.75;;
72621;SDS011;60665;53.506;9.582;2022-07-12T03:41:14;5.22;;;1.90;;
72621;SDS011;60665;53.506;9.582;2022-07-12T03:43:39;3.63;;;1.55;;
72621;SDS011;60665;53.506;9.582;2022-07-12T03:46:05;4.15;;;2.10;;
72621;SDS011;60665;53.506;9.582;2022-07-12T03:48:30;3.67;;;1.80;;
72621;SDS011;60665;53.506;9.582;2022-07-12T03:50:55;4.03;;;1.92;;
72621;SDS011;60665;53.506;9.582;2022-07-12T03:53:21;4.07;;;1.90;;
72621;SDS011;60665;53.506;9.582;2022-07-12T03:55:47;5.20;;;2.05;;
72621;SDS011;60665;53.506;9.582;2022-07-12T03:58:12;3.90;;;1.80;;
72621;SDS011;60665;53.506;9.582;2022-07-12T04:00:37;7.30;;;2.47;;
72621;SDS011;60665;53.506;9.582;2022-07-12T04:03:05;4.00;;;2.40;;
72621;SDS011;60665;53.506;9.582;2022-07-12T04:05:31;5.78;;;2.53;;
72621;SDS011;60665;53.506;9.582;2022-07-12T04:07:56;5.82;;;2.00;;
72621;SDS011;60665;53.506;9.582;2022-07-12T04:13:35;4.18;;;2.22;;
72621;SDS011;60665;53.506;9.582;2022-07-12T04:18:40;4.23;;;2.10;;
72621;SDS011;60665;53.506;9.582;2022-07-12T04:21:05;4.97;;;2.55;;
72621;SDS011;60665;53.506;9.582;2022-07-12T04:23:30;4.70;;;2.45;;
72621;SDS011;60665;53.506;9.582;2022-07-12T04:25:56;5.20;;;2.80;;
72621;SDS011;60665;53.506;9.582;2022-07-12T04:28:21;5.50;;;2.80;;
72621;SDS011;60665;53.506;9.582;2022-07-12T04:30:47;6.95;;;2.70;;
72621;SDS011;60665;53.506;9.582;2022-07-12T04:33:13;3.78;;;1.98;;
72621;SDS011;60665;53.506;9.582;2022-07-12T04:35:39;5.82;;;1.80;;
72621;SDS011;60665;53.506;9.582;2022-07-12T04:38:05;3.88;;;1.90;;
72621;SDS011;60665;53.506;9.582;2022-07-12T04:40:30;6.63;;;2.58;;
72621;SDS011;60665;53.506;9.582;2022-07-12T04:42:56;5.15;;;2.70;;
72621;SDS011;60665;53.506;9.582;2022-07-12T04:45:22;4.97;;;2.10;;
72621;SDS011;60665;53.506;9.582;2022-07-12T04:47:47;7.45;;;2.58;;
72621;SDS011;60665;53.506;9.582;2022-07-12T04:50:12;6.38;;;3.03;;
72621;SDS011;60665;53.506;9.582;2022-07-12T04:52:38;6.25;;;2.80;;
72621;SDS011;60665;53.506;9.582;2022-07-12T04:55:04;7.10;;;2.75;;
72621;SDS011;60665;53.506;9.582;2022-07-12T04:57:36;9.20;;;3.42;;
72621;SDS011;60665;53.506;9.582;2022-07-12T05:00:03;5.53;;;3.17;;
72621;SDS011;60665;53.506;9.582;2022-07-12T05:02:33;4.75;;;2.80;;
72621;SDS011;60665;53.506;9.582;2022-07-12T05:09:10;10.80;;;3.15;;
72621;SDS011;60665;53.506;9.582;2022-07-12T05:11:44;5.45;;;3.10;;
72621;SDS011;60665;53.506;9.582;2022-07-12T05:14:13;5.35;;;3.03;;
72621;SDS011;60665;53.506;9.582;2022-07-12T05:16:43;6.85;;;2.95;;
72621;SDS011;60665;53.506;9.582;2022-07-12T05:19:14;6.78;;;2.95;;
72621;SDS011;60665;53.506;9.582;2022-07-12T05:21:57;6.70;;;2.45;;
72621;SDS011;60665;53.506;9.582;2022-07-12T05:25:13;6.95;;;2.63;;
72621;SDS011;60665;53.506;9.582;2022-07-12T05:27:40;7.03;;;2.85;;
72621;SDS011;60665;53.506;9.582;2022-07-12T05:30:17;6.10;;;2.58;;
72621;SDS011;60665;53.506;9.582;2022-07-12T05:32:42;6.43;;;2.63;;
72621;SDS011;60665;53.506;9.582;2022-07-12T05:35:08;7.78;;;3.08;;
72621;SDS011;60665;53.506;9.582;2022-07-12T05:37:33;5.90;;;3.28;;
72621;SDS011;60665;53.506;9.582;2022-07-12T05:39:59;6.45;;;3.42;;
72621;SDS011;60665;53.506;9.582;2022-07-12T05:42:24;7.55;;;3.13;;
72621;SDS011;60665;53.506;9.582;2022-07-12T05:44:50;7.38;;;3.00;;
72621;SDS011;60665;53.506;9.582;2022-07-12T05:47:15;6.05;;;3.30;;
72621;SDS011;60665;53.506;9.582;2022-07-12T05:49:40;5.80;;;2.60;;
72621;SDS011;60665;53.506;9.582;2022-07-12T05:52:06;9.75;;;3.47;;
72621;SDS011;60665;53.506;9.582;2022-07-12T05:54:49;10.50;;;3.13;;
72621;SDS011;60665;53.506;9.582;2022-07-12T05:57:15;5.70;;;2.63;;
72621;SDS011;60665;53.506;9.582;2022-07-12T05:59:41;5.00;;;2.92;;
72621;SDS011;60665;53.506;9.582;2022-07-12T06:02:06;5.20;;;2.63;;
72621;SDS011;60665;53.506;9.582;2022-07-12T06:04:32;5.60;;;2.83;;
72621;SDS011;60665;53.506;9.582;2022-07-12T06:06:57;5.22;;;2.75;;
72621;SDS011;60665;53.506;9.582;2022-07-12T06:09:22;7.53;;;2.30;;
72621;SDS011;60665;53.506;9.582;2022-07-12T06:11:48;3.92;;;2.22;;
72621;SDS011;60665;53.506;9.582;2022-07-12T06:14:13;5.32;;;2.75;;
72621;SDS011;60665;53.506;9.582;2022-07-12T06:16:39;5.68;;;2.67;;
72621;SDS011;60665;53.506;9.582;2022-07-12T06:19:04;6.90;;;2.70;;
72621;SDS011;60665;53.506;9.582;2022-07-12T06:21:29;5.32;;;2.40;;
72621;SDS011;60665;53.506;9.582;2022-07-12T06:23:55;5.53;;;2.33;;
72621;SDS011;60665;53.506;9.582;2022-07-12T06:26:21;5.07;;;2.70;;
72621;SDS011;60665;53.506;9.582;2022-07-12T06:28:46;4.20;;;2.22;;
72621;SDS011;60665;53.506;9.582;2022-07-12T06:31:11;4.95;;;2.20;;
72621;SDS011;60665;53.506;9.582;2022-07-12T06:33:37;5.93;;;2.00;;
72621;SDS011;60665;53.506;9.582;2022-07-12T06:36:02;4.13;;;2.08;;
72621;SDS011;60665;53.506;9.582;2022-07-12T06:38:28;4.88;;;2.55;;
72621;SDS011;60665;53.506;9.582;2022-07-12T06:40:53;4.32;;;2.03;;
72621;SDS011;60665;53.506;9.582;2022-07-12T06:43:18;5.53;;;2.35;;
72621;SDS011;60665;53.506;9.582;2022-07-12T06:45:44;4.68;;;2.10;;
72621;SDS011;60665;53.506;9.582;2022-07-12T06:48:09;4.43;;;1.95;;
72621;SDS011;60665;53.506;9.582;2022-07-12T06:50:35;5.15;;;1.77;;
72621;SDS011;60665;53.506;9.582;2022-07-12T06:53:00;5.75;;;1.83;;
72621;SDS011;60665;53.506;9.582;2022-07-12T06:55:26;5.38;;;1.83;;
72621;SDS011;60665;53.506;9.582;2022-07-12T06:57:51;4.15;;;2.17;;
72621;SDS011;60665;53.506;9.582;2022-07-12T07:00:16;3.35;;;1.70;;
72621;SDS011;60665;53.506;9.582;2022-07-12T07:02:42;4.35;;;1.60;;
72621;SDS011;60665;53.506;9.582;2022-07-12T07:05:07;3.03;;;1.30;;
72621;SDS011;60665;53.506;9.582;2022-07-12T07:07:33;3.53;;;1.52;;
72621;SDS011;60665;53.506;9.582;2022-07-12T07:09:59;3.75;;;1.50;;
72621;SDS011;60665;53.506;9.582;2022-07-12T07:12:24;3.42;;;1.50;;
72621;SDS011;60665;53.506;9.582;2022-07-12T07:14:50;4.35;;;1.52;;
72621;SDS011;60665;53.506;9.582;2022-07-12T07:17:15;3.45;;;1.50;;
72621;SDS011;60665;53.506;9.582;2022-07-12T07:19:42;3.42;;;1.63;;
72621;SDS011;60665;53.506;9.582;2022-07-12T07:22:07;3.63;;;1.50;;
72621;SDS011;60665;53.506;9.582;2022-07-12T07:24:32;3.08;;;1.38;;
72621;SDS011;60665;53.506;9.582;2022-07-12T07:26:58;2.90;;;1.23;;
72621;SDS011;60665;53.506;9.582;2022-07-12T07:29:23;4.55;;;1.60;;
72621;SDS011;60665;53.506;9.582;2022-07-12T07:32:07;3.50;;;1.63;;
72621;SDS011;60665;53.506;9.582;2022-07-12T07:34:32;3.65;;;1.60;;
72621;SDS011;60665;53.506;9.582;2022-07-12T07:36:58;3.03;;;1.20;;
72621;SDS011;60665;53.506;9.582;2022-07-12T07:39:23;3.35;;;1.52;;
72621;SDS011;60665;53.506;9.582;2022-07-12T07:41:48;2.03;;;0.98;;
72621;SDS011;60665;53.506;9.582;2022-07-12T07:44:14;3.65;;;1.25;;
72621;SDS011;60665;53.506;9.582;2022-07-12T07:46:39;2.90;;;1.02;;
72621;SDS011;60665;53.506;9.582;2022-07-12T07:49:05;2.83;;;1.02;;
72621;SDS011;60665;53.506;9.582;2022-07-12T07:51:30;3.30;;;1.20;;
72621;SDS011;60665;53.506;9.582;2022-07-12T07:53:55;3.95;;;1.23;;
72621;SDS011;60665;53.506;9.582;2022-07-12T07:56:21;2.80;;;1.20;;
72621;SDS011;60665;53.506;9.582;2022-07-12T07:58:46;3.00;;;1.13;;
72621;SDS011;60665;53.506;9.582;2022-07-12T08:01:11;2.85;;;1.30;;
72621;SDS011;60665;53.506;9.582;2022-07-12T08:03:37;3.08;;;1.02;;
72621;SDS011;60665;53.506;9.582;2022-07-12T08:06:02;3.90;;;1.20;;
72621;SDS011;60665;53.506;9.582;2022-07-12T08:08:28;3.33;;;1.23;;
72621;SDS011;60665;53.506;9.582;2022-07-12T08:10:53;2.70;;;1.15;;
72621;SDS011;60665;53.506;9.582;2022-07-12T08:13:19;4.18;;;1.27;;
72621;SDS011;60665;53.506;9.582;2022-07-12T08:15:45;4.20;;;1.27;;
72621;SDS011;60665;53.506;9.582;2022-07-12T08:18:10;2.40;;;1.02;;
72621;SDS011;60665;53.506;9.582;2022-07-12T08:20:35;3.55;;;1.13;;
72621;SDS011;60665;53.506;9.582;2022-07-12T08:23:01;2.83;;;1.00;;
72621;SDS011;60665;53.506;9.582;2022-07-12T08:25:27;2.72;;;1.17;;
72621;SDS011;60665;53.506;9.582;2022-07-12T08:27:53;2.63;;;1.13;;
72621;SDS011;60665;53.506;9.582;2022-07-12T08:30:18;3.65;;;1.08;;
72621;SDS011;60665;53.506;9.582;2022-07-12T08:32:44;2.70;;;1.23;;
72621;SDS011;60665;53.506;9.582;2022-07-12T08:35:10;4.55;;;1.10;;
72621;SDS011;60665;53.506;9.582;2022-07-12T08:37:35;2.58;;;1.00;;
72621;SDS011;60665;53.506;9.582;2022-07-12T08:40:00;2.70;;;1.15;;
72621;SDS011;60665;53.506;9.582;2022-07-12T08:42:26;2.78;;;1.00;;
72621;SDS011;60665;53.506;9.582;2022-07-12T08:44:55;2.90;;;1.30;;
72621;SDS011;60665;53.506;9.582;2022-07-12T08:47:23;2.85;;;1.17;;
72621;SDS011;60665;53.506;9.582;2022-07-12T08:52:35;4.78;;;1.50;;
72621;SDS011;60665;53.506;9.582;2022-07-12T09:00:27;3.13;;;1.02;;
72621;SDS011;60665;53.506;9.582;2022-07-12T09:02:54;2.25;;;0.95;;
72621;SDS011;60665;53.506;9.582;2022-07-12T09:05:21;2.47;;;0.90;;
72621;SDS011;60665;53.506;9.582;2022-07-12T09:07:48;3.25;;;1.05;;
72621;SDS011;60665;53.506;9.582;2022-07-12T09:10:14;2.15;;;0.93;;
72621;SDS011;60665;53.506;9.582;2022-07-12T09:12:40;2.38;;;0.75;;
72621;SDS011;60665;53.506;9.582;2022-07-12T09:15:10;2.50;;;0.93;;
72621;SDS011;60665;53.506;9.582;2022-07-12T09:17:39;2.78;;;0.98;;
72621;SDS011;60665;53.506;9.582;2022-07-12T09:20:08;2.67;;;1.02;;
72621;SDS011;60665;53.506;9.582;2022-07-12T09:22:35;3.17;;;0.90;;
72621;SDS011;60665;53.506;9.582;2022-07-12T09:25:16;2.10;;;0.88;;
72621;SDS011;60665;53.506;9.582;2022-07-12T09:28:04;3.25;;;0.80;;
72621;SDS011;60665;53.506;9.582;2022-07-12T09:30:29;2.55;;;1.08;;
72621;SDS011;60665;53.506;9.582;2022-07-12T09:33:01;2.35;;;1.00;;
72621;SDS011;60665;53.506;9.582;2022-07-12T09:38:35;3.85;;;1.20;;
72621;SDS011;60665;53.506;9.582;2022-07-12T09:41:04;2.63;;;1.02;;
72621;SDS011;60665;53.506;9.582;2022-07-12T09:43:31;2.33;;;0.90;;
72621;SDS011;60665;53.506;9.582;2022-07-12T09:45:56;2.20;;;1.00;;
72621;SDS011;60665;53.506;9.582;2022-07-12T09:48:23;1.88;;;1.00;;
72621;SDS011;60665;53.506;9.582;2022-07-12T09:50:49;1.63;;;0.85;;
72621;SDS011;60665;53.506;9.582;2022-07-12T09:53:22;4.15;;;1.10;;
72621;SDS011;60665;53.506;9.582;2022-07-12T09:55:52;1.80;;;0.98;;
72621;SDS011;60665;53.506;9.582;2022-07-12T09:58:22;2.17;;;1.02;;
72621;SDS011;60665;53.506;9.582;2022-07-12T10:00:52;2.35;;;1.10;;
72621;SDS011;60665;53.506;9.582;2022-07-12T10:03:21;2.50;;;1.10;;
72621;SDS011;60665;53.506;9.582;2022-07-12T10:05:49;3.38;;;1.00;;
72621;SDS011;60665;53.506;9.582;2022-07-12T10:08:21;2.13;;;0.93;;
72621;SDS011;60665;53.506;9.582;2022-07-12T10:10:47;2.30;;;1.00;;
72621;SDS011;60665;53.506;9.582;2022-07-12T10:13:14;2.30;;;0.90;;
72621;SDS011;60665;53.506;9.582;2022-07-12T10:15:40;2.00;;;1.00;;
72621;SDS011;60665;53.506;9.582;2022-07-12T10:18:08;2.72;;;0.98;;
72621;SDS011;60665;53.506;9.582;2022-07-12T10:20:43;3.22;;;1.02;;
72621;SDS011;60665;53.506;9.582;2022-07-12T10:23:51;2.00;;;0.95;;
72621;SDS011;60665;53.506;9.582;2022-07-12T10:26:46;2.67;;;1.15;;
72621;SDS011;60665;53.506;9.582;2022-07-12T10:29:04;1.48;;;0.85;;
72621;SDS011;60665;53.506;9.582;2022-07-12T10:31:34;2.20;;;1.00;;
72621;SDS011;60665;53.506;9.582;2022-07-12T10:34:11;1.20;;;0.70;;
72621;SDS011;60665;53.506;9.582;2022-07-12T10:39:21;2.20;;;1.10;;
72621;SDS011;60665;53.506;9.582;2022-07-12T10:42:32;2.80;;;1.10;;
72621;SDS011;60665;53.506;9.582;2022-07-12T10:44:39;2.90;;;1.13;;
72621;SDS011;60665;53.506;9.582;2022-07-12T10:47:07;2.42;;;1.02;;
72621;SDS011;60665;53.506;9.582;2022-07-12T10:49:33;2.42;;;1.10;;
72621;SDS011;60665;53.506;9.582;2022-07-12T10:54:35;5.40;;;1.13;;
72621;SDS011;60665;53.506;9.582;2022-07-12T10:57:04;3.03;;;1.00;;
72621;SDS011;60665;53.506;9.582;2022-07-12T10:59:30;2.42;;;0.95;;
72621;SDS011;60665;53.506;9.582;2022-07-12T11:01:59;2.15;;;0.93;;
72621;SDS011;60665;53.506;9.582;2022-07-12T11:04:25;2.42;;;0.90;;
72621;SDS011;60665;53.506;9.582;2022-07-12T11:06:52;2.17;;;0.80;;
72621;SDS011;60665;53.506;9.582;2022-07-12T11:09:20;1.65;;;0.82;;
72621;SDS011;60665;53.506;9.582;2022-07-12T11:11:47;2.38;;;1.02;;
72621;SDS011;60665;53.506;9.582;2022-07-12T11:14:23;1.65;;;0.93;;
72621;SDS011;60665;53.506;9.582;2022-07-12T11:16:59;2.22;;;1.02;;
72621;SDS011;60665;53.506;9.582;2022-07-12T11:19:29;1.85;;;1.00;;
72621;SDS011;60665;53.506;9.582;2022-07-12T11:21:55;1.80;;;0.80;;
72621;SDS011;60665;53.506;9.582;2022-07-12T11:24:23;3.13;;;0.90;;
72621;SDS011;60665;53.506;9.582;2022-07-12T11:26:52;2.30;;;0.90;;
72621;SDS011;60665;53.506;9.582;2022-07-12T11:29:18;2.30;;;1.10;;
72621;SDS011;60665;53.506;9.582;2022-07-12T11:31:44;3.97;;;1.17;;
72621;SDS011;60665;53.506;9.582;2022-07-12T11:34:23;2.65;;;0.93;;
72621;SDS011;60665;53.506;9.582;2022-07-12T11:36:56;2.33;;;1.20;;
72621;SDS011;60665;53.506;9.582;2022-07-12T11:39:29;3.83;;;1.30;;
72621;SDS011;60665;53.506;9.582;2022-07-12T11:42:02;3.83;;;1.23;;
72621;SDS011;60665;53.506;9.582;2022-07-12T11:44:45;2.40;;;1.23;;
72621;SDS011;60665;53.506;9.582;2022-07-12T11:47:12;4.03;;;1.05;;
72621;SDS011;60665;53.506;9.582;2022-07-12T11:49:42;3.20;;;1.23;;
72621;SDS011;60665;53.506;9.582;2022-07-12T11:52:11;2.17;;;1.33;;
72621;SDS011;60665;53.506;9.582;2022-07-12T11:54:37;2.50;;;1.20;;
72621;SDS011;60665;53.506;9.582;2022-07-12T11:57:09;5.53;;;1.33;;
72621;SDS011;60665;53.506;9.582;2022-07-12T11:59:35;3.22;;;1.20;;
72621;SDS011;60665;53.506;9.582;2022-07-12T12:04:29;3.13;;;1.20;;
72621;SDS011;60665;53.506;9.582;2022-07-12T12:06:55;4.05;;;1.38;;
72621;SDS011;60665;53.506;9.582;2022-07-12T12:09:20;3.33;;;1.48;;
72621;SDS011;60665;53.506;9.582;2022-07-12T12:11:46;2.30;;;1.13;;
72621;SDS011;60665;53.506;9.582;2022-07-12T12:14:11;4.43;;;1.35;;
72621;SDS011;60665;53.506;9.582;2022-07-12T12:16:37;2.75;;;1.08;;
72621;SDS011;60665;53.506;9.582;2022-07-12T12:19:03;3.45;;;1.42;;
72621;SDS011;60665;53.506;9.582;2022-07-12T12:21:28;2.78;;;1.23;;
72621;SDS011;60665;53.506;9.582;2022-07-12T12:24:07;5.07;;;1.52;;
72621;SDS011;60665;53.506;9.582;2022-07-12T12:26:34;3.35;;;1.08;;
72621;SDS011;60665;53.506;9.582;2022-07-12T12:28:59;3.92;;;1.13;;
72621;SDS011;60665;53.506;9.582;2022-07-12T12:31:27;2.90;;;1.33;;
72621;SDS011;60665;53.506;9.582;2022-07-12T12:33:54;2.90;;;1.33;;
72621;SDS011;60665;53.506;9.582;2022-07-12T12:36:27;3.72;;;1.25;;
72621;SDS011;60665;53.506;9.582;2022-07-12T12:38:58;2.47;;;1.15;;
72621;SDS011;60665;53.506;9.582;2022-07-12T12:41:25;3.28;;;1.25;;
72621;SDS011;60665;53.506;9.582;2022-07-12T12:44:01;2.05;;;1.15;;
72621;SDS011;60665;53.506;9.582;2022-07-12T12:49:18;2.55;;;0.93;;
72621;SDS011;60665;53.506;9.582;2022-07-12T12:51:53;1.85;;;0.88;;
72621;SDS011;60665;53.506;9.582;2022-07-12T12:54:33;2.15;;;1.10;;
72621;SDS011;60665;53.506;9.582;2022-07-12T12:56:59;2.63;;;1.23;;
72621;SDS011;60665;53.506;9.582;2022-07-12T12:59:24;3.03;;;1.02;;
72621;SDS011;60665;53.506;9.582;2022-07-12T13:01:50;1.90;;;1.05;;
72621;SDS011;60665;53.506;9.582;2022-07-12T13:04:15;2.97;;;1.00;;
72621;SDS011;60665;53.506;9.582;2022-07-12T13:06:40;2.60;;;1.27;;
72621;SDS011;60665;53.506;9.582;2022-07-12T13:09:06;2.13;;;0.93;;
72621;SDS011;60665;53.506;9.582;2022-07-12T13:11:31;1.90;;;0.82;;
72621;SDS011;60665;53.506;9.582;2022-07-12T13:13:56;2.70;;;1.20;;
72621;SDS011;60665;53.506;9.582;2022-07-12T13:16:23;2.83;;;0.93;;
72621;SDS011;60665;53.506;9.582;2022-07-12T13:18:48;2.40;;;1.20;;
72621;SDS011;60665;53.506;9.582;2022-07-12T13:21:14;3.65;;;0.90;;
72621;SDS011;60665;53.506;9.582;2022-07-12T13:23:42;2.78;;;1.20;;
72621;SDS011;60665;53.506;9.582;2022-07-12T13:26:09;1.55;;;0.88;;
72621;SDS011;60665;53.506;9.582;2022-07-12T13:28:34;3.05;;;1.50;;
72621;SDS011;60665;53.506;9.582;2022-07-12T13:30:59;2.97;;;1.10;;
72621;SDS011;60665;53.506;9.582;2022-07-12T13:33:25;8.60;;;1.63;;
72621;SDS011;60665;53.506;9.582;2022-07-12T13:35:50;2.88;;;1.13;;
72621;SDS011;60665;53.506;9.582;2022-07-12T13:38:16;2.30;;;1.25;;
72621;SDS011;60665;53.506;9.582;2022-07-12T13:40:41;3.00;;;1.23;;
72621;SDS011;60665;53.506;9.582;2022-07-12T13:43:06;3.22;;;1.25;;
72621;SDS011;60665;53.506;9.582;2022-07-12T13:45:32;2.97;;;1.33;;
72621;SDS011;60665;53.506;9.582;2022-07-12T13:47:59;4.88;;;1.50;;
72621;SDS011;60665;53.506;9.582;2022-07-12T13:50:25;3.00;;;1.48;;
72621;SDS011;60665;53.506;9.582;2022-07-12T13:52:51;4.40;;;1.52;;
72621;SDS011;60665;53.506;9.582;2022-07-12T13:55:16;2.50;;;1.30;;
72621;SDS011;60665;53.506;9.582;2022-07-12T13:57:43;3.55;;;1.52;;
72621;SDS011;60665;53.506;9.582;2022-07-12T14:00:09;4.38;;;1.80;;
72621;SDS011;60665;53.506;9.582;2022-07-12T14:02:37;3.33;;;1.63;;
72621;SDS011;60665;53.506;9.582;2022-07-12T14:05:04;4.53;;;1.77;;
72621;SDS011;60665;53.506;9.582;2022-07-12T14:07:30;5.57;;;1.75;;
72621;SDS011;60665;53.506;9.582;2022-07-12T14:09:56;2.83;;;1.40;;
72621;SDS011;60665;53.506;9.582;2022-07-12T14:15:06;3.03;;;1.58;;
72621;SDS011;60665;53.506;9.582;2022-07-12T14:17:51;4.15;;;1.63;;
72621;SDS011;60665;53.506;9.582;2022-07-12T14:20:20;3.42;;;1.75;;
72621;SDS011;60665;53.506;9.582;2022-07-12T14:22:49;3.20;;;1.52;;
72621;SDS011;60665;53.506;9.582;2022-07-12T14:25:15;2.72;;;1.50;;
72621;SDS011;60665;53.506;9.582;2022-07-12T14:27:41;3.25;;;1.83;;
72621;SDS011;60665;53.506;9.582;2022-07-12T14:32:51;3.80;;;1.80;;
72621;SDS011;60665;53.506;9.582;2022-07-12T14:35:17;2.90;;;1.65;;
72621;SDS011;60665;53.506;9.582;2022-07-12T14:37:42;3.10;;;1.45;;
72621;SDS011;60665;53.506;9.582;2022-07-12T14:40:08;3.05;;;1.40;;
72621;SDS011;60665;53.506;9.582;2022-07-12T14:42:34;4.30;;;1.40;;
72621;SDS011;60665;53.506;9.582;2022-07-12T14:44:59;4.82;;;1.52;;
72621;SDS011;60665;53.506;9.582;2022-07-12T14:47:25;3.13;;;1.50;;
72621;SDS011;60665;53.506;9.582;2022-07-12T14:49:50;4.22;;;1.33;;
72621;SDS011;60665;53.506;9.582;2022-07-12T14:52:19;5.00;;;1.67;;
72621;SDS011;60665;53.506;9.582;2022-07-12T14:55:02;2.88;;;1.33;;
72621;SDS011;60665;53.506;9.582;2022-07-12T14:57:28;3.65;;;1.40;;
72621;SDS011;60665;53.506;9.582;2022-07-12T14:59:53;4.03;;;1.38;;
72621;SDS011;60665;53.506;9.582;2022-07-12T15:02:19;3.22;;;1.13;;
72621;SDS011;60665;53.506;9.582;2022-07-12T15:04:44;4.25;;;1.20;;
72621;SDS011;60665;53.506;9.582;2022-07-12T15:07:10;2.92;;;1.30;;
72621;SDS011;60665;53.506;9.582;2022-07-12T15:09:35;3.55;;;1.13;;
72621;SDS011;60665;53.506;9.582;2022-07-12T15:12:00;3.15;;;1.13;;
72621;SDS011;60665;53.506;9.582;2022-07-12T15:14:45;2.55;;;1.13;;
72621;SDS011;60665;53.506;9.582;2022-07-12T15:17:10;4.32;;;1.17;;
72621;SDS011;60665;53.506;9.582;2022-07-12T15:19:36;2.55;;;1.10;;
72621;SDS011;60665;53.506;9.582;2022-07-12T15:22:02;2.22;;;0.85;;
72621;SDS011;60665;53.506;9.582;2022-07-12T15:24:27;2.45;;;1.13;;
72621;SDS011;60665;53.506;9.582;2022-07-12T15:26:53;4.95;;;1.60;;